This is the latest recevied weather packets stored in our database for station/object KD7AWQ. If no packets are shown the sender has not sent any weather packets the latest 1 day(s).
| Time | Temp. | Humidity | Pressure | Rain* | Wind** | Luminosity | Snow |
|---|---|---|---|---|---|---|---|
| 1778084018 | 16.11° C | 36% | 1185.7 hPa | 0 mm | - | 736 W/m² | - |
| 1778081685 | 16.11° C | 34% | 1185.5 hPa | 0 mm | - | 587 W/m² | - |
| 1778080778 | 15.56° C | 37% | 1185.6 hPa | 0 mm | - | 521 W/m² | - |
| 1778079868 | 15° C | 37% | 1185.7 hPa | 0 mm | - | 454 W/m² | - |
| 1778077447 | 14.44° C | 40% | 1185.3 hPa | 0 mm | - | 277 W/m² | - |
| 1778075934 | 14.44° C | 39% | 1185 hPa | 0 mm | - | 173 W/m² | - |
| 1778075631 | 13.89° C | 39% | 1185.3 hPa | 0 mm | - | 156 W/m² | - |
| 1778074417 | 12.78° C | 43% | 1184.8 hPa | 0 mm | - | 90 W/m² | - |
| 1778073811 | 12.22° C | 45% | 1185.2 hPa | 0 mm | - | 67 W/m² | - |
| 1778073205 | 11.67° C | 46% | 1185 hPa | 0 mm | - | 49 W/m² | - |
| 1778071693 | 10.56° C | 48% | 1184.4 hPa | 0 mm | - | 20 W/m² | - |
| 1778070786 | 10.56° C | 48% | 1184.4 hPa | 0 mm | - | 7 W/m² | - |
| 1778069271 | 10.56° C | 47% | 1184.1 hPa | 0 mm | - | 0 W/m² | - |
| 1778068969 | 10.56° C | 47% | 1183.9 hPa | 0 mm | - | 0 W/m² | - |
| 1778068062 | 10.56° C | 45% | 1184.1 hPa | 0 mm | - | 0 W/m² | - |
| 1778067458 | 10.56° C | 44% | 1184.1 hPa | 0 mm | - | 0 W/m² | - |
| 1778067155 | 10.56° C | 45% | 1184.1 hPa | 0 mm | - | 0 W/m² | - |
| 1778066851 | 11.11° C | 44% | 1184.1 hPa | 0 mm | - | 0 W/m² | - |
| 1778066549 | 11.11° C | 44% | 1184.1 hPa | 0 mm | - | 0 W/m² | - |
| 1778066246 | 10.56° C | 44% | 1184.3 hPa | 0 mm | - | 0 W/m² | - |
| 1778064430 | 11.11° C | 43% | 1184.1 hPa | 0 mm | - | 0 W/m² | - |
| 1778063824 | 10.56° C | 48% | 1183.9 hPa | 0 mm | - | 0 W/m² | - |
| 1778063521 | 10° C | 48% | 1183.9 hPa | 0 mm | - | 0 W/m² | - |
| 1778063219 | 11.11° C | 48% | 1184 hPa | 0 mm | - | 0 W/m² | - |
| 1778062613 | 11.67° C | 43% | 1183.8 hPa | 0 mm | - | 0 W/m² | - |
* Rain latest hour (hover to see other rain measurements)
** Current wind speed in m/s (hover to see current wind gust speed)